sensor_id;sensor_type;location;lat;lon;timestamp;pressure;altitude;pressure_sealevel;temperature;humidity
22755;BME280;11544;42.020;23.094;2023-04-02T00:08:56;96404.22;;;8.10;100.00
22755;BME280;11544;42.020;23.094;2023-04-02T00:11:48;96402.50;;;8.11;100.00
22755;BME280;11544;42.020;23.094;2023-04-02T00:14:35;96405.19;;;8.53;100.00
22755;BME280;11544;42.020;23.094;2023-04-02T00:17:04;96399.16;;;8.73;100.00
22755;BME280;11544;42.020;23.094;2023-04-02T00:19:48;96392.03;;;8.78;100.00
22755;BME280;11544;42.020;23.094;2023-04-02T00:22:23;96383.25;;;8.60;100.00
22755;BME280;11544;42.020;23.094;2023-04-02T00:24:53;96373.38;;;8.48;100.00
22755;BME280;11544;42.020;23.094;2023-04-02T00:27:20;96386.59;;;8.42;100.00
22755;BME280;11544;42.020;23.094;2023-04-02T00:29:52;96384.59;;;8.48;100.00
22755;BME280;11544;42.020;23.094;2023-04-02T00:32:27;96382.06;;;8.23;100.00
22755;BME280;11544;42.020;23.094;2023-04-02T00:34:55;96390.25;;;8.36;100.00
22755;BME280;11544;42.020;23.094;2023-04-02T00:37:26;96384.53;;;7.82;100.00
22755;BME280;11544;42.020;23.094;2023-04-02T00:39:59;96390.84;;;8.21;100.00
22755;BME280;11544;42.020;23.094;2023-04-02T00:42:29;96389.25;;;8.17;100.00
22755;BME280;11544;42.020;23.094;2023-04-02T00:44:57;96383.28;;;8.15;100.00
22755;BME280;11544;42.020;23.094;2023-04-02T00:47:34;96388.66;;;8.10;100.00
22755;BME280;11544;42.020;23.094;2023-04-02T00:52:51;96390.13;;;8.17;100.00
22755;BME280;11544;42.020;23.094;2023-04-02T00:55:30;96389.75;;;7.81;100.00
22755;BME280;11544;42.020;23.094;2023-04-02T00:58:01;96386.19;;;8.07;100.00
22755;BME280;11544;42.020;23.094;2023-04-02T01:00:34;96399.69;;;7.70;100.00
22755;BME280;11544;42.020;23.094;2023-04-02T01:05:54;96398.97;;;7.90;100.00
22755;BME280;11544;42.020;23.094;2023-04-02T01:11:50;96397.31;;;8.11;100.00
22755;BME280;11544;42.020;23.094;2023-04-02T01:20:28;96392.31;;;7.82;100.00
22755;BME280;11544;42.020;23.094;2023-04-02T01:26:34;96396.53;;;7.61;100.00
22755;BME280;11544;42.020;23.094;2023-04-02T01:29:05;96405.91;;;7.42;100.00
22755;BME280;11544;42.020;23.094;2023-04-02T01:31:33;96404.63;;;7.77;100.00
22755;BME280;11544;42.020;23.094;2023-04-02T01:34:02;96413.72;;;7.88;100.00
22755;BME280;11544;42.020;23.094;2023-04-02T01:45:34;96401.44;;;7.93;100.00
22755;BME280;11544;42.020;23.094;2023-04-02T01:48:17;96411.78;;;8.38;100.00
22755;BME280;11544;42.020;23.094;2023-04-02T01:50:52;96415.03;;;8.21;100.00
22755;BME280;11544;42.020;23.094;2023-04-02T01:53:39;96417.16;;;8.12;100.00
22755;BME280;11544;42.020;23.094;2023-04-02T01:56:15;96399.84;;;8.34;100.00
22755;BME280;11544;42.020;23.094;2023-04-02T01:58:44;96394.72;;;7.87;100.00
22755;BME280;11544;42.020;23.094;2023-04-02T02:01:23;96385.69;;;8.19;100.00
22755;BME280;11544;42.020;23.094;2023-04-02T02:03:53;96395.44;;;7.91;100.00
22755;BME280;11544;42.020;23.094;2023-04-02T02:06:21;96385.47;;;8.03;100.00
22755;BME280;11544;42.020;23.094;2023-04-02T02:08:52;96389.75;;;7.81;100.00
22755;BME280;11544;42.020;23.094;2023-04-02T02:11:28;96390.34;;;7.89;100.00
22755;BME280;11544;42.020;23.094;2023-04-02T02:14:16;96381.28;;;7.99;100.00
22755;BME280;11544;42.020;23.094;2023-04-02T02:16:45;96383.84;;;8.67;100.00
22755;BME280;11544;42.020;23.094;2023-04-02T02:19:34;96388.66;;;8.10;100.00
22755;BME280;11544;42.020;23.094;2023-04-02T02:22:29;96382.69;;;8.08;100.00
22755;BME280;11544;42.020;23.094;2023-04-02T02:24:59;96392.78;;;8.16;100.00
22755;BME280;11544;42.020;23.094;2023-04-02T02:28:04;96387.25;;;8.47;100.00
22755;BME280;11544;42.020;23.094;2023-04-02T02:30:56;96388.19;;;8.22;100.00
22755;BME280;11544;42.020;23.094;2023-04-02T02:33:32;96391.31;;;8.09;100.00
22755;BME280;11544;42.020;23.094;2023-04-02T02:43:58;96395.44;;;7.91;100.00
22755;BME280;11544;42.020;23.094;2023-04-02T02:46:27;96394.88;;;8.06;100.00
22755;BME280;11544;42.020;23.094;2023-04-02T02:48:57;96392.47;;;8.01;100.00
22755;BME280;11544;42.020;23.094;2023-04-02T02:51:39;96392.94;;;8.11;100.00
22755;BME280;11544;42.020;23.094;2023-04-02T02:54:08;96384.97;;;7.94;100.00
22755;BME280;11544;42.020;23.094;2023-04-02T02:56:38;96383.13;;;7.96;100.00
22755;BME280;11544;42.020;23.094;2023-04-02T02:59:09;96387.47;;;7.73;100.00
22755;BME280;11544;42.020;23.094;2023-04-02T03:01:37;96383.56;;;8.07;100.00
22755;BME280;11544;42.020;23.094;2023-04-02T03:04:04;96381.78;;;8.09;100.00
22755;BME280;11544;42.020;23.094;2023-04-02T03:06:31;96393.59;;;7.94;100.00
22755;BME280;11544;42.020;23.094;2023-04-02T03:15:46;96393.78;;;7.66;100.00
22755;BME280;11544;42.020;23.094;2023-04-02T03:18:43;96402.44;;;7.41;100.00
22755;BME280;11544;42.020;23.094;2023-04-02T03:21:23;96412.38;;;7.54;100.00
22755;BME280;11544;42.020;23.094;2023-04-02T03:24:04;96407.22;;;7.77;100.00
22755;BME280;11544;42.020;23.094;2023-04-02T03:26:41;96392.81;;;7.69;100.00
22755;BME280;11544;42.020;23.094;2023-04-02T03:29:24;96404.94;;;7.68;100.00
22755;BME280;11544;42.020;23.094;2023-04-02T03:31:55;96414.03;;;7.31;100.00
22755;BME280;11544;42.020;23.094;2023-04-02T03:34:36;96406.53;;;7.24;100.00
22755;BME280;11544;42.020;23.094;2023-04-02T03:37:38;96404.06;;;7.20;100.00
22755;BME280;11544;42.020;23.094;2023-04-02T03:40:41;96416.63;;;7.56;100.00
22755;BME280;11544;42.020;23.094;2023-04-02T03:45:48;96417.94;;;7.43;100.00
22755;BME280;11544;42.020;23.094;2023-04-02T03:51:03;96417.06;;;7.44;100.00
22755;BME280;11544;42.020;23.094;2023-04-02T03:53:32;96422.81;;;7.52;100.00
22755;BME280;11544;42.020;23.094;2023-04-02T03:56:00;96428.59;;;7.35;100.00
22755;BME280;11544;42.020;23.094;2023-04-02T03:58:40;96427.97;;;7.29;100.00
22755;BME280;11544;42.020;23.094;2023-04-02T04:01:33;96418.13;;;7.62;100.00
22755;BME280;11544;42.020;23.094;2023-04-02T04:04:08;96423.66;;;7.53;100.00
22755;BME280;11544;42.020;23.094;2023-04-02T04:06:41;96420.41;;;7.46;100.00
22755;BME280;11544;42.020;23.094;2023-04-02T04:09:28;96413.13;;;7.81;100.00
22755;BME280;11544;42.020;23.094;2023-04-02T04:12:08;96413.06;;;7.82;100.00
22755;BME280;11544;42.020;23.094;2023-04-02T04:14:42;96425.94;;;7.37;100.00
22755;BME280;11544;42.020;23.094;2023-04-02T04:17:16;96424.00;;;6.92;100.00
22755;BME280;11544;42.020;23.094;2023-04-02T04:20:10;96429.72;;;6.76;100.00
22755;BME280;11544;42.020;23.094;2023-04-02T04:22:40;96441.16;;;6.96;100.00
22755;BME280;11544;42.020;23.094;2023-04-02T04:25:19;96446.69;;;7.12;100.00
22755;BME280;11544;42.020;23.094;2023-04-02T04:28:09;96451.09;;;6.83;100.00
22755;BME280;11544;42.020;23.094;2023-04-02T04:30:50;96457.25;;;6.79;100.00
22755;BME280;11544;42.020;23.094;2023-04-02T04:33:29;96461.47;;;7.08;100.00
22755;BME280;11544;42.020;23.094;2023-04-02T04:36:16;96464.25;;;7.29;100.00
22755;BME280;11544;42.020;23.094;2023-04-02T04:38:49;96462.00;;;7.18;100.00
22755;BME280;11544;42.020;23.094;2023-04-02T04:41:28;96461.72;;;7.52;100.00
22755;BME280;11544;42.020;23.094;2023-04-02T04:44:08;96465.97;;;7.03;100.00
22755;BME280;11544;42.020;23.094;2023-04-02T04:46:54;96478.50;;;6.90;100.00
22755;BME280;11544;42.020;23.094;2023-04-02T04:49:47;96477.69;;;7.15;100.00
22755;BME280;11544;42.020;23.094;2023-04-02T04:52:23;96473.25;;;6.37;100.00
22755;BME280;11544;42.020;23.094;2023-04-02T04:54:50;96481.25;;;6.86;100.00
22755;BME280;11544;42.020;23.094;2023-04-02T04:57:30;96479.25;;;7.94;100.00
22755;BME280;11544;42.020;23.094;2023-04-02T05:00:31;96483.97;;;7.08;100.00
22755;BME280;11544;42.020;23.094;2023-04-02T05:03:12;96484.41;;;7.20;100.00
22755;BME280;11544;42.020;23.094;2023-04-02T05:05:43;96480.13;;;7.19;100.00
22755;BME280;11544;42.020;23.094;2023-04-02T05:08:18;96487.44;;;7.33;100.00
22755;BME280;11544;42.020;23.094;2023-04-02T05:11:20;96480.25;;;7.65;100.00
22755;BME280;11544;42.020;23.094;2023-04-02T05:13:53;96489.91;;;7.36;100.00
22755;BME280;11544;42.020;23.094;2023-04-02T05:16:51;96499.31;;;7.14;100.00
22755;BME280;11544;42.020;23.094;2023-04-02T05:19:43;96488.63;;;7.73;100.00
22755;BME280;11544;42.020;23.094;2023-04-02T05:22:24;96496.69;;;7.66;100.00
22755;BME280;11544;42.020;23.094;2023-04-02T05:25:14;96493.53;;;7.32;100.00
22755;BME280;11544;42.020;23.094;2023-04-02T05:32:59;96494.50;;;7.78;100.00
22755;BME280;11544;42.020;23.094;2023-04-02T05:35:34;96492.25;;;7.93;100.00
22755;BME280;11544;42.020;23.094;2023-04-02T05:38:04;96494.41;;;8.05;100.00
22755;BME280;11544;42.020;23.094;2023-04-02T05:40:38;96505.69;;;8.04;100.00
22755;BME280;11544;42.020;23.094;2023-04-02T05:43:15;96503.28;;;8.23;100.00
22755;BME280;11544;42.020;23.094;2023-04-02T05:45:50;96525.53;;;7.81;100.00
22755;BME280;11544;42.020;23.094;2023-04-02T05:48:28;96526.28;;;7.60;100.00
22755;BME280;11544;42.020;23.094;2023-04-02T05:50:59;96523.78;;;7.82;100.00
22755;BME280;11544;42.020;23.094;2023-04-02T05:53:34;96525.19;;;7.91;100.00
22755;BME280;11544;42.020;23.094;2023-04-02T05:58:56;96529.84;;;8.06;100.00
22755;BME280;11544;42.020;23.094;2023-04-02T06:04:05;96525.91;;;8.43;100.00
22755;BME280;11544;42.020;23.094;2023-04-02T06:09:16;96522.78;;;8.33;100.00
22755;BME280;11544;42.020;23.094;2023-04-02T06:11:51;96523.09;;;8.49;100.00
22755;BME280;11544;42.020;23.094;2023-04-02T06:14:22;96518.03;;;8.90;100.00
22755;BME280;11544;42.020;23.094;2023-04-02T06:16:49;96515.06;;;8.99;100.00
22755;BME280;11544;42.020;23.094;2023-04-02T06:19:26;96506.84;;;9.30;100.00
22755;BME280;11544;42.020;23.094;2023-04-02T06:22:07;96506.91;;;9.49;100.00
22755;BME280;11544;42.020;23.094;2023-04-02T06:24:38;96506.25;;;9.03;100.00
22755;BME280;11544;42.020;23.094;2023-04-02T06:27:14;96508.34;;;9.98;100.00
22755;BME280;11544;42.020;23.094;2023-04-02T06:29:47;96513.31;;;9.63;100.00
22755;BME280;11544;42.020;23.094;2023-04-02T06:32:22;96516.06;;;9.99;100.00
22755;BME280;11544;42.020;23.094;2023-04-02T06:34:54;96505.31;;;11.01;96.85
22755;BME280;11544;42.020;23.094;2023-04-02T06:37:36;96501.50;;;10.34;93.99
22755;BME280;11544;42.020;23.094;2023-04-02T06:40:20;96498.44;;;10.25;94.02
22755;BME280;11544;42.020;23.094;2023-04-02T06:42:51;96499.19;;;11.55;91.12
22755;BME280;11544;42.020;23.094;2023-04-02T06:45:30;96492.41;;;12.19;81.91
22755;BME280;11544;42.020;23.094;2023-04-02T06:48:03;96483.69;;;12.67;77.66
22755;BME280;11544;42.020;23.094;2023-04-02T06:50:32;96483.44;;;12.40;77.02
22755;BME280;11544;42.020;23.094;2023-04-02T06:53:06;96493.72;;;12.27;74.97
22755;BME280;11544;42.020;23.094;2023-04-02T06:56:03;96486.56;;;12.95;74.39
22755;BME280;11544;42.020;23.094;2023-04-02T06:58:30;96489.88;;;13.59;79.16
22755;BME280;11544;42.020;23.094;2023-04-02T07:00:57;96481.63;;;14.79;78.48
22755;BME280;11544;42.020;23.094;2023-04-02T07:03:26;96478.22;;;14.65;69.50
22755;BME280;11544;42.020;23.094;2023-04-02T07:05:54;96479.88;;;14.66;67.35
22755;BME280;11544;42.020;23.094;2023-04-02T07:08:22;96483.28;;;13.96;67.81
22755;BME280;11544;42.020;23.094;2023-04-02T07:10:49;96480.94;;;15.17;62.98
22755;BME280;11544;42.020;23.094;2023-04-02T07:13:18;96486.06;;;14.50;61.42
22755;BME280;11544;42.020;23.094;2023-04-02T07:15:53;96494.41;;;13.41;61.43
22755;BME280;11544;42.020;23.094;2023-04-02T07:18:25;96488.88;;;14.47;62.12
22755;BME280;11544;42.020;23.094;2023-04-02T07:20:52;96483.56;;;14.20;60.75
22755;BME280;11544;42.020;23.094;2023-04-02T07:23:19;96480.25;;;15.01;60.20
22755;BME280;11544;42.020;23.094;2023-04-02T07:25:48;96484.84;;;13.70;60.60
22755;BME280;11544;42.020;23.094;2023-04-02T07:28:34;96489.09;;;13.87;61.15
22755;BME280;11544;42.020;23.094;2023-04-02T07:31:14;96490.28;;;13.95;60.67
22755;BME280;11544;42.020;23.094;2023-04-02T07:33:42;96485.69;;;14.42;58.99
22755;BME280;11544;42.020;23.094;2023-04-02T07:36:19;96489.50;;;13.65;62.83
22755;BME280;11544;42.020;23.094;2023-04-02T07:38:51;96486.72;;;13.68;64.75
22755;BME280;11544;42.020;23.094;2023-04-02T07:41:18;96477.34;;;14.50;62.31
22755;BME280;11544;42.020;23.094;2023-04-02T07:43:49;96484.59;;;12.98;62.78
22755;BME280;11544;42.020;23.094;2023-04-02T07:48:42;96482.88;;;14.45;63.27
22755;BME280;11544;42.020;23.094;2023-04-02T07:51:25;96482.63;;;14.35;63.27
22755;BME280;11544;42.020;23.094;2023-04-02T07:53:52;96486.66;;;14.41;62.19
22755;BME280;11544;42.020;23.094;2023-04-02T07:56:25;96488.09;;;14.74;61.63
22755;BME280;11544;42.020;23.094;2023-04-02T07:58:53;96485.63;;;14.85;62.04
22755;BME280;11544;42.020;23.094;2023-04-02T08:01:23;96494.28;;;15.14;59.51
22755;BME280;11544;42.020;23.094;2023-04-02T08:03:52;96486.44;;;14.73;58.79
22755;BME280;11544;42.020;23.094;2023-04-02T08:06:27;96487.06;;;14.91;57.45
22755;BME280;11544;42.020;23.094;2023-04-02T08:08:57;96481.28;;;14.98;59.15
22755;BME280;11544;42.020;23.094;2023-04-02T08:11:48;96477.53;;;15.42;58.41
22755;BME280;11544;42.020;23.094;2023-04-02T08:14:15;96480.56;;;15.36;63.19
22755;BME280;11544;42.020;23.094;2023-04-02T08:16:53;96468.19;;;15.38;59.92
22755;BME280;11544;42.020;23.094;2023-04-02T08:19:21;96476.59;;;15.43;59.97
22755;BME280;11544;42.020;23.094;2023-04-02T08:21:49;96464.72;;;15.38;57.98
22755;BME280;11544;42.020;23.094;2023-04-02T08:24:18;96465.31;;;15.81;55.45
22755;BME280;11544;42.020;23.094;2023-04-02T08:26:47;96463.75;;;15.79;54.50
22755;BME280;11544;42.020;23.094;2023-04-02T08:29:14;96452.88;;;16.22;53.71
22755;BME280;11544;42.020;23.094;2023-04-02T08:31:41;96455.28;;;16.75;54.57
22755;BME280;11544;42.020;23.094;2023-04-02T08:34:09;96450.34;;;16.20;53.29
22755;BME280;11544;42.020;23.094;2023-04-02T08:36:38;96451.09;;;17.44;51.95
22755;BME280;11544;42.020;23.094;2023-04-02T08:39:06;96452.59;;;16.63;48.13
22755;BME280;11544;42.020;23.094;2023-04-02T08:41:46;96453.44;;;16.14;46.75
22755;BME280;11544;42.020;23.094;2023-04-02T08:44:41;96463.78;;;15.52;48.12
22755;BME280;11544;42.020;23.094;2023-04-02T08:47:12;96449.75;;;17.03;48.18
22755;BME280;11544;42.020;23.094;2023-04-02T08:49:50;96441.28;;;17.46;44.87
22755;BME280;11544;42.020;23.094;2023-04-02T08:52:26;96431.88;;;17.77;44.53
22755;BME280;11544;42.020;23.094;2023-04-02T08:54:54;96442.97;;;16.38;42.11
22755;BME280;11544;42.020;23.094;2023-04-02T09:00:21;96440.59;;;17.67;40.83
22755;BME280;11544;42.020;23.094;2023-04-02T09:02:55;96423.31;;;17.98;40.81
22755;BME280;11544;42.020;23.094;2023-04-02T09:05:27;96430.09;;;17.07;42.35
22755;BME280;11544;42.020;23.094;2023-04-02T09:07:58;96422.53;;;17.03;43.88
22755;BME280;11544;42.020;23.094;2023-04-02T09:10:40;96421.28;;;17.55;42.17
22755;BME280;11544;42.020;23.094;2023-04-02T09:13:42;96411.19;;;18.18;42.69
22755;BME280;11544;42.020;23.094;2023-04-02T09:16:47;96417.22;;;17.51;42.76
22755;BME280;11544;42.020;23.094;2023-04-02T09:19:22;96403.44;;;17.59;41.24
22755;BME280;11544;42.020;23.094;2023-04-02T09:22:07;96402.91;;;17.89;43.88
22755;BME280;11544;42.020;23.094;2023-04-02T09:24:35;96388.25;;;18.41;42.72
22755;BME280;11544;42.020;23.094;2023-04-02T09:27:08;96391.38;;;18.35;42.30
22755;BME280;11544;42.020;23.094;2023-04-02T09:29:46;96377.72;;;18.41;41.17
22755;BME280;11544;42.020;23.094;2023-04-02T09:32:31;96381.44;;;18.27;41.39
22755;BME280;11544;42.020;23.094;2023-04-02T09:35:12;96386.59;;;18.17;42.99
22755;BME280;11544;42.020;23.094;2023-04-02T09:38:24;96372.78;;;18.48;41.14
22755;BME280;11544;42.020;23.094;2023-04-02T09:41:04;96363.53;;;17.29;41.94
22755;BME280;11544;42.020;23.094;2023-04-02T09:43:36;96365.75;;;17.11;42.54
22755;BME280;11544;42.020;23.094;2023-04-02T09:46:17;96357.34;;;18.09;42.09
22755;BME280;11544;42.020;23.094;2023-04-02T09:48:59;96350.22;;;17.31;41.68
22755;BME280;11544;42.020;23.094;2023-04-02T09:51:29;96352.25;;;18.51;41.20
22755;BME280;11544;42.020;23.094;2023-04-02T09:56:36;96338.31;;;17.83;40.13
22755;BME280;11544;42.020;23.094;2023-04-02T09:59:05;96345.69;;;18.78;40.47
22755;BME280;11544;42.020;23.094;2023-04-02T10:01:35;96338.09;;;19.38;39.82
22755;BME280;11544;42.020;23.094;2023-04-02T10:04:04;96333.91;;;19.35;38.37
22755;BME280;11544;42.020;23.094;2023-04-02T10:06:33;96338.28;;;19.04;40.25
22755;BME280;11544;42.020;23.094;2023-04-02T10:09:25;96337.97;;;18.97;38.15
22755;BME280;11544;42.020;23.094;2023-04-02T10:12:29;96333.13;;;18.38;39.06
22755;BME280;11544;42.020;23.094;2023-04-02T10:15:03;96330.78;;;18.45;38.46
22755;BME280;11544;42.020;23.094;2023-04-02T10:17:34;96333.03;;;18.60;39.00
22755;BME280;11544;42.020;23.094;2023-04-02T10:20:22;96326.16;;;18.69;39.25
22755;BME280;11544;42.020;23.094;2023-04-02T10:22:51;96320.31;;;19.40;40.26
22755;BME280;11544;42.020;23.094;2023-04-02T10:25:20;96322.44;;;19.56;37.87
22755;BME280;11544;42.020;23.094;2023-04-02T10:28:12;96329.97;;;18.88;37.69
22755;BME280;11544;42.020;23.094;2023-04-02T10:34:00;96330.59;;;18.36;37.30
22755;BME280;11544;42.020;23.094;2023-04-02T10:36:48;96333.22;;;18.36;37.65
22755;BME280;11544;42.020;23.094;2023-04-02T10:39:28;96325.25;;;18.91;40.75
22755;BME280;11544;42.020;23.094;2023-04-02T10:42:25;96318.56;;;19.08;40.25
22755;BME280;11544;42.020;23.094;2023-04-02T10:47:57;96307.72;;;19.32;41.28
22755;BME280;11544;42.020;23.094;2023-04-02T10:50:53;96303.41;;;19.52;39.97
22755;BME280;11544;42.020;23.094;2023-04-02T10:53:36;96309.41;;;19.12;37.02
22755;BME280;11544;42.020;23.094;2023-04-02T10:56:11;96306.00;;;19.42;36.58
22755;BME280;11544;42.020;23.094;2023-04-02T10:58:54;96298.53;;;19.57;35.60
22755;BME280;11544;42.020;23.094;2023-04-02T11:01:26;96294.53;;;19.63;39.08
22755;BME280;11544;42.020;23.094;2023-04-02T11:04:04;96287.03;;;19.58;36.29
22755;BME280;11544;42.020;23.094;2023-04-02T11:06:39;96288.63;;;20.11;36.31
22755;BME280;11544;42.020;23.094;2023-04-02T11:09:15;96280.38;;;20.04;33.42
22755;BME280;11544;42.020;23.094;2023-04-02T11:11:45;96278.84;;;19.40;35.79
22755;BME280;11544;42.020;23.094;2023-04-02T11:14:19;96275.22;;;20.03;35.21
22755;BME280;11544;42.020;23.094;2023-04-02T11:16:51;96275.88;;;19.95;34.98
22755;BME280;11544;42.020;23.094;2023-04-02T11:19:25;96278.59;;;18.59;35.48
22755;BME280;11544;42.020;23.094;2023-04-02T11:22:23;96272.69;;;19.61;37.54
22755;BME280;11544;42.020;23.094;2023-04-02T11:24:52;96268.84;;;19.75;34.47
22755;BME280;11544;42.020;23.094;2023-04-02T11:27:24;96261.34;;;20.20;35.37
22755;BME280;11544;42.020;23.094;2023-04-02T11:30:24;96268.56;;;20.08;34.85
22755;BME280;11544;42.020;23.094;2023-04-02T11:39:10;96257.09;;;19.98;35.25
22755;BME280;11544;42.020;23.094;2023-04-02T11:44:24;96248.00;;;20.32;34.78
22755;BME280;11544;42.020;23.094;2023-04-02T11:55:25;96227.66;;;20.61;35.15
22755;BME280;11544;42.020;23.094;2023-04-02T12:12:00;96243.25;;;19.35;35.37
22755;BME280;11544;42.020;23.094;2023-04-02T12:14:47;96239.38;;;19.49;34.74
22755;BME280;11544;42.020;23.094;2023-04-02T12:17:50;96243.03;;;19.27;35.33
22755;BME280;11544;42.020;23.094;2023-04-02T12:20:20;96240.25;;;19.18;35.80
22755;BME280;11544;42.020;23.094;2023-04-02T12:22:53;96241.06;;;19.19;35.56
22755;BME280;11544;42.020;23.094;2023-04-02T12:25:31;96249.41;;;18.93;37.00
22755;BME280;11544;42.020;23.094;2023-04-02T12:30:36;96240.59;;;18.83;37.86
22755;BME280;11544;42.020;23.094;2023-04-02T12:35:54;96236.66;;;19.29;37.75
22755;BME280;11544;42.020;23.094;2023-04-02T12:38:32;96237.41;;;19.10;35.93
22755;BME280;11544;42.020;23.094;2023-04-02T12:41:27;96244.94;;;18.94;34.79
22755;BME280;11544;42.020;23.094;2023-04-02T12:44:03;96245.13;;;19.23;35.80
22755;BME280;11544;42.020;23.094;2023-04-02T12:46:33;96247.91;;;18.79;36.23
22755;BME280;11544;42.020;23.094;2023-04-02T12:49:37;96240.88;;;19.11;36.41
22755;BME280;11544;42.020;23.094;2023-04-02T12:52:10;96237.22;;;19.02;36.35
22755;BME280;11544;42.020;23.094;2023-04-02T12:59:55;96227.91;;;18.66;35.76
22755;BME280;11544;42.020;23.094;2023-04-02T13:02:30;96238.50;;;18.33;35.29
22755;BME280;11544;42.020;23.094;2023-04-02T13:05:00;96241.38;;;18.62;36.29
22755;BME280;11544;42.020;23.094;2023-04-02T13:07:46;96237.91;;;18.62;35.77
22755;BME280;11544;42.020;23.094;2023-04-02T13:10:24;96238.13;;;18.38;37.21
22755;BME280;11544;42.020;23.094;2023-04-02T13:13:14;96239.88;;;19.02;35.95
22755;BME280;11544;42.020;23.094;2023-04-02T13:15:43;96228.47;;;18.80;35.07
22755;BME280;11544;42.020;23.094;2023-04-02T13:18:19;96231.56;;;18.53;36.20
22755;BME280;11544;42.020;23.094;2023-04-02T13:20:58;96232.97;;;18.69;34.93
22755;BME280;11544;42.020;23.094;2023-04-02T13:25:58;96233.34;;;18.64;33.73
22755;BME280;11544;42.020;23.094;2023-04-02T13:28:26;96235.19;;;18.52;34.16
22755;BME280;11544;42.020;23.094;2023-04-02T13:30:54;96228.47;;;18.80;33.65
22755;BME280;11544;42.020;23.094;2023-04-02T13:33:21;96230.47;;;18.56;33.43
22755;BME280;11544;42.020;23.094;2023-04-02T13:35:48;96230.03;;;18.51;34.16
22755;BME280;11544;42.020;23.094;2023-04-02T13:38:15;96228.25;;;18.72;33.20
22755;BME280;11544;42.020;23.094;2023-04-02T13:40:42;96224.09;;;18.37;33.73
22755;BME280;11544;42.020;23.094;2023-04-02T13:43:15;96221.53;;;18.47;34.68
22755;BME280;11544;42.020;23.094;2023-04-02T13:45:46;96223.56;;;18.23;34.27
22755;BME280;11544;42.020;23.094;2023-04-02T13:48:15;96237.31;;;17.83;34.43
22755;BME280;11544;42.020;23.094;2023-04-02T13:50:44;96236.06;;;18.09;34.79
22755;BME280;11544;42.020;23.094;2023-04-02T13:53:19;96228.38;;;18.17;34.06
22755;BME280;11544;42.020;23.094;2023-04-02T13:55:48;96231.19;;;18.26;34.37
22755;BME280;11544;42.020;23.094;2023-04-02T13:58:15;96229.19;;;18.50;34.05
22755;BME280;11544;42.020;23.094;2023-04-02T14:00:59;96228.53;;;18.37;34.88
22755;BME280;11544;42.020;23.094;2023-04-02T14:03:42;96228.09;;;18.53;34.29
22755;BME280;11544;42.020;23.094;2023-04-02T14:20:35;96231.34;;;18.24;36.22
22755;BME280;11544;42.020;23.094;2023-04-02T14:31:14;96221.13;;;18.31;35.26
22755;BME280;11544;42.020;23.094;2023-04-02T14:34:07;96218.88;;;18.26;35.62
22755;BME280;11544;42.020;23.094;2023-04-02T14:37:04;96227.59;;;18.38;35.09
22755;BME280;11544;42.020;23.094;2023-04-02T14:43:31;96219.84;;;18.46;35.04
22755;BME280;11544;42.020;23.094;2023-04-02T14:46:05;96215.34;;;18.37;34.81
22755;BME280;11544;42.020;23.094;2023-04-02T14:48:55;96218.66;;;18.71;34.36
22755;BME280;11544;42.020;23.094;2023-04-02T14:51:28;96225.25;;;18.45;34.83
22755;BME280;11544;42.020;23.094;2023-04-02T14:56:47;96226.34;;;18.42;34.84
22755;BME280;11544;42.020;23.094;2023-04-02T14:59:34;96221.25;;;18.29;34.54
22755;BME280;11544;42.020;23.094;2023-04-02T15:02:22;96221.03;;;18.21;35.25
22755;BME280;11544;42.020;23.094;2023-04-02T15:04:57;96218.72;;;17.95;35.46
22755;BME280;11544;42.020;23.094;2023-04-02T15:07:35;96220.13;;;18.11;34.62
22755;BME280;11544;42.020;23.094;2023-04-02T15:10:34;96217.69;;;18.19;35.10
22755;BME280;11544;42.020;23.094;2023-04-02T15:13:16;96219.84;;;18.14;34.77
22755;BME280;11544;42.020;23.094;2023-04-02T15:15:51;96220.69;;;17.82;34.88
22755;BME280;11544;42.020;23.094;2023-04-02T15:18:24;96225.19;;;18.03;34.92
22755;BME280;11544;42.020;23.094;2023-04-02T15:24:01;96224.59;;;18.31;34.24
22755;BME280;11544;42.020;23.094;2023-04-02T15:30:05;96229.72;;;18.12;34.23
22755;BME280;11544;42.020;23.094;2023-04-02T15:32:57;96220.72;;;18.14;33.75
22755;BME280;11544;42.020;23.094;2023-04-02T15:44:25;96217.44;;;18.22;34.35
22755;BME280;11544;42.020;23.094;2023-04-02T15:47:01;96217.81;;;18.17;34.21
22755;BME280;11544;42.020;23.094;2023-04-02T15:52:51;96221.41;;;17.84;35.46
22755;BME280;11544;42.020;23.094;2023-04-02T15:55:35;96229.50;;;17.92;35.83
22755;BME280;11544;42.020;23.094;2023-04-02T15:58:28;96221.47;;;17.94;36.47
22755;BME280;11544;42.020;23.094;2023-04-02T16:12:38;96229.75;;;17.67;37.59
22755;BME280;11544;42.020;23.094;2023-04-02T16:15:33;96228.34;;;17.63;37.49
22755;BME280;11544;42.020;23.094;2023-04-02T16:21:06;96230.97;;;17.63;37.90
22755;BME280;11544;42.020;23.094;2023-04-02T16:23:35;96229.78;;;17.55;38.62
22755;BME280;11544;42.020;23.094;2023-04-02T16:34:21;96240.03;;;16.91;40.00
22755;BME280;11544;42.020;23.094;2023-04-02T16:37:01;96238.94;;;16.47;41.62
22755;BME280;11544;42.020;23.094;2023-04-02T16:42:20;96252.28;;;16.33;41.59
22755;BME280;11544;42.020;23.094;2023-04-02T16:47:43;96251.66;;;16.05;42.72
22755;BME280;11544;42.020;23.094;2023-04-02T16:59:10;96260.09;;;15.35;44.66
22755;BME280;11544;42.020;23.094;2023-04-02T17:07:20;96268.09;;;14.95;46.27
22755;BME280;11544;42.020;23.094;2023-04-02T17:10:22;96266.41;;;14.81;47.11
22755;BME280;11544;42.020;23.094;2023-04-02T17:16:30;96273.44;;;14.68;47.68
22755;BME280;11544;42.020;23.094;2023-04-02T17:19:00;96274.91;;;14.72;47.87
22755;BME280;11544;42.020;23.094;2023-04-02T17:21:47;96284.56;;;14.44;48.37